createdAt,value
2022-08-03T00:02:18.180Z,0.90
2022-08-03T00:04:45.793Z,0.80
2022-08-03T00:07:12.924Z,1.00
2022-08-03T00:09:40.294Z,0.90
2022-08-03T00:12:08.008Z,0.98
2022-08-03T00:14:35.385Z,1.08
2022-08-03T00:17:03.536Z,0.90
2022-08-03T00:19:30.998Z,0.90
2022-08-03T00:21:58.092Z,1.00
2022-08-03T00:24:25.382Z,1.10
2022-08-03T00:26:52.919Z,0.98
2022-08-03T00:29:20.028Z,0.98
2022-08-03T00:31:52.896Z,0.75
2022-08-03T00:34:57.965Z,1.00
2022-08-03T00:37:16.425Z,0.75
2022-08-03T00:39:45.994Z,1.05
2022-08-03T00:42:14.185Z,0.88
2022-08-03T00:44:43.297Z,0.90
2022-08-03T00:47:11.798Z,0.90
2022-08-03T00:49:41.319Z,0.70
2022-08-03T00:52:14.014Z,0.80
2022-08-03T00:54:41.479Z,1.10
2022-08-03T00:57:09.386Z,1.00
2022-08-03T00:59:38.283Z,0.80
2022-08-03T01:02:05.747Z,0.90
2022-08-03T01:04:33.188Z,0.80
2022-08-03T01:07:46.910Z,0.80
2022-08-03T01:10:26.919Z,1.00
2022-08-03T01:14:01.462Z,0.90
2022-08-03T01:16:19.988Z,0.85
2022-08-03T01:19:36.322Z,1.10
2022-08-03T01:22:37.860Z,0.75
2022-08-03T01:25:31.986Z,0.80
2022-08-03T01:28:38.893Z,0.77
2022-08-03T01:31:09.195Z,0.75
2022-08-03T01:33:42.596Z,0.88
2022-08-03T01:36:24.912Z,0.80
2022-08-03T01:38:56.614Z,0.65
2022-08-03T01:41:55.402Z,1.10
2022-08-03T01:44:29.443Z,1.20
2022-08-03T01:47:01.293Z,1.00
2022-08-03T01:49:32.053Z,1.20
2022-08-03T01:52:04.829Z,1.15
2022-08-03T01:54:38.185Z,1.20
2022-08-03T01:57:07.189Z,1.33
2022-08-03T01:59:36.988Z,0.95
2022-08-03T02:02:28.473Z,0.85
2022-08-03T02:04:56.981Z,0.98
2022-08-03T02:07:27.313Z,1.00
2022-08-03T02:09:56.086Z,0.93
2022-08-03T02:12:27.352Z,0.90
2022-08-03T02:14:56.630Z,0.82
2022-08-03T02:17:39.450Z,1.10
2022-08-03T02:20:10.737Z,0.73
2022-08-03T02:22:41.574Z,0.90
2022-08-03T02:25:14.535Z,1.02
2022-08-03T02:27:57.354Z,1.00
2022-08-03T02:30:33.386Z,0.80
2022-08-03T02:33:01.993Z,0.75
2022-08-03T02:35:31.165Z,0.90
2022-08-03T02:38:03.458Z,0.80
2022-08-03T02:40:32.472Z,1.15
2022-08-03T02:43:18.543Z,0.60
2022-08-03T02:45:49.733Z,0.93
2022-08-03T02:48:23.296Z,0.93
2022-08-03T02:50:54.673Z,1.00
2022-08-03T02:53:24.125Z,0.85
2022-08-03T02:55:53.047Z,1.10
2022-08-03T02:58:23.940Z,0.80
2022-08-03T03:00:52.877Z,1.00
2022-08-03T03:03:22.588Z,0.80
2022-08-03T03:05:55.894Z,0.80
2022-08-03T03:08:28.227Z,0.85
2022-08-03T03:13:27.956Z,0.80
2022-08-03T03:15:58.133Z,1.05
2022-08-03T03:18:28.256Z,0.90
2022-08-03T03:20:56.775Z,0.85
2022-08-03T03:23:26.814Z,0.90
2022-08-03T03:25:56.558Z,0.90
2022-08-03T03:28:25.457Z,1.20
2022-08-03T03:30:53.457Z,0.93
2022-08-03T03:33:24.760Z,1.10
2022-08-03T03:35:52.917Z,0.80
2022-08-03T03:38:20.680Z,0.70
2022-08-03T03:40:48.732Z,1.10
2022-08-03T03:43:18.614Z,0.80
2022-08-03T03:45:47.126Z,0.90
2022-08-03T03:48:14.724Z,0.80
2022-08-03T03:50:42.413Z,0.77
2022-08-03T03:53:11.304Z,0.70
2022-08-03T03:55:59.688Z,0.80
2022-08-03T03:58:26.474Z,0.88
2022-08-03T04:00:54.119Z,0.80
2022-08-03T04:03:21.465Z,0.70
2022-08-03T04:06:07.497Z,0.90
2022-08-03T04:08:53.275Z,1.10
2022-08-03T04:11:31.041Z,0.80
2022-08-03T04:14:24.300Z,0.90
2022-08-03T04:16:59.070Z,0.68
2022-08-03T04:19:43.627Z,0.70
2022-08-03T04:22:15.017Z,0.80
2022-08-03T04:24:47.546Z,0.93
2022-08-03T04:27:19.751Z,0.80
2022-08-03T04:29:49.973Z,0.85
2022-08-03T04:32:18.267Z,0.75
2022-08-03T04:34:46.000Z,1.20
2022-08-03T04:37:35.854Z,0.90
2022-08-03T04:40:07.994Z,1.00
2022-08-03T04:42:36.006Z,1.00
2022-08-03T04:45:05.450Z,1.27
2022-08-03T04:47:34.408Z,1.20
2022-08-03T04:50:10.422Z,1.15
2022-08-03T04:52:39.699Z,1.17
2022-08-03T04:55:07.558Z,0.85
2022-08-03T04:57:34.884Z,0.90
2022-08-03T05:00:03.605Z,1.02
2022-08-03T05:02:32.381Z,0.95
2022-08-03T05:04:59.942Z,0.93
2022-08-03T05:07:36.212Z,0.90
2022-08-03T05:10:15.123Z,1.00
2022-08-03T05:12:46.075Z,1.05
2022-08-03T05:15:13.715Z,0.98
2022-08-03T05:17:41.718Z,1.20
2022-08-03T05:20:10.222Z,1.40
2022-08-03T05:22:37.398Z,1.20
2022-08-03T05:25:05.542Z,1.17
2022-08-03T05:27:32.677Z,1.20
2022-08-03T05:30:27.347Z,1.38
2022-08-03T05:32:46.990Z,1.00
2022-08-03T05:35:55.962Z,1.25
2022-08-03T05:38:03.369Z,1.20
2022-08-03T05:40:31.237Z,1.20
2022-08-03T05:42:59.185Z,1.15
2022-08-03T05:45:28.421Z,1.30
2022-08-03T05:47:56.090Z,1.15
2022-08-03T05:50:23.501Z,1.35
2022-08-03T05:52:50.773Z,1.25
2022-08-03T05:55:19.130Z,1.30
2022-08-03T05:57:47.505Z,1.10
2022-08-03T06:00:17.206Z,1.20
2022-08-03T06:02:44.546Z,0.98
2022-08-03T06:05:12.095Z,1.20
2022-08-03T06:07:39.304Z,1.33
2022-08-03T06:10:37.354Z,1.35
2022-08-03T06:12:54.809Z,1.35
2022-08-03T06:15:22.195Z,1.60
2022-08-03T06:17:51.326Z,1.52
2022-08-03T06:20:20.656Z,1.50
2022-08-03T06:22:51.293Z,1.70
2022-08-03T06:25:29.105Z,1.33
2022-08-03T06:27:56.545Z,1.52
2022-08-03T06:30:23.928Z,1.50
2022-08-03T06:32:51.687Z,1.73
2022-08-03T06:35:20.386Z,1.40
2022-08-03T06:37:52.238Z,1.63
2022-08-03T06:45:18.957Z,1.23
2022-08-03T06:47:46.173Z,1.42
2022-08-03T06:50:17.020Z,1.40
2022-08-03T06:52:45.640Z,1.55
2022-08-03T06:55:13.018Z,1.70
2022-08-03T06:57:40.084Z,1.40
2022-08-03T07:00:12.411Z,1.42
2022-08-03T07:02:40.708Z,1.60
2022-08-03T07:05:09.737Z,1.60
2022-08-03T07:07:37.409Z,1.60
2022-08-03T07:10:06.899Z,1.40
2022-08-03T07:12:35.083Z,1.27
2022-08-03T07:15:03.642Z,1.30
2022-08-03T07:17:33.912Z,1.15
2022-08-03T07:20:02.706Z,1.27
2022-08-03T07:22:30.077Z,1.15
2022-08-03T07:24:57.826Z,1.40
2022-08-03T07:27:27.156Z,1.13
2022-08-03T07:29:55.514Z,1.10
2022-08-03T07:32:23.234Z,0.90
2022-08-03T07:34:50.768Z,1.13
2022-08-03T07:37:17.950Z,1.15
2022-08-03T07:39:45.312Z,1.20
2022-08-03T07:42:12.418Z,1.17
2022-08-03T07:44:39.982Z,1.30
2022-08-03T07:47:07.341Z,0.82
2022-08-03T07:49:41.546Z,1.08
2022-08-03T07:52:28.441Z,0.95
2022-08-03T07:54:55.861Z,0.93
2022-08-03T07:57:23.030Z,1.00
2022-08-03T07:59:57.235Z,0.85
2022-08-03T08:02:29.687Z,0.85
2022-08-03T08:04:56.930Z,0.90
2022-08-03T08:07:25.285Z,0.90
2022-08-03T08:09:52.735Z,0.95
2022-08-03T08:12:20.099Z,0.77
2022-08-03T08:14:47.606Z,0.90
2022-08-03T08:17:15.215Z,0.88
2022-08-03T08:19:49.015Z,0.75
2022-08-03T08:22:30.231Z,2.42
2022-08-03T08:24:59.586Z,1.20
2022-08-03T08:27:28.755Z,0.80
2022-08-03T08:30:19.569Z,0.77
2022-08-03T08:32:48.226Z,0.73
2022-08-03T08:35:17.459Z,0.80
2022-08-03T08:37:51.054Z,0.73
2022-08-03T08:40:23.012Z,0.80
2022-08-03T08:45:27.670Z,0.75
2022-08-03T08:48:01.644Z,0.68
2022-08-03T08:50:31.188Z,0.90
2022-08-03T08:53:03.847Z,0.70
2022-08-03T08:55:59.795Z,0.82
2022-08-03T08:58:22.384Z,0.90
2022-08-03T09:00:50.958Z,0.80
2022-08-03T09:03:22.742Z,0.80
2022-08-03T09:05:57.624Z,0.80
2022-08-03T09:08:24.790Z,0.95
2022-08-03T09:10:52.244Z,0.80
2022-08-03T09:13:19.568Z,0.73
2022-08-03T09:15:52.751Z,0.82
2022-08-03T09:18:32.917Z,0.80
2022-08-03T09:21:34.309Z,0.70
2022-08-03T09:24:06.478Z,0.75
2022-08-03T09:26:37.878Z,0.65
2022-08-03T09:29:14.897Z,0.77
2022-08-03T09:31:44.380Z,1.10
2022-08-03T09:34:18.349Z,0.70
2022-08-03T09:36:49.622Z,0.80
2022-08-03T09:39:40.574Z,0.90
2022-08-03T09:42:08.824Z,0.70
2022-08-03T09:44:42.396Z,0.60
2022-08-03T09:47:11.828Z,0.73
2022-08-03T09:49:41.667Z,0.80
2022-08-03T09:52:32.900Z,0.70
2022-08-03T09:56:21.156Z,0.85
2022-08-03T09:58:11.550Z,0.90
2022-08-03T10:01:06.199Z,0.80
2022-08-03T10:04:03.514Z,0.80
2022-08-03T10:06:28.835Z,0.70
2022-08-03T10:09:12.567Z,0.85
2022-08-03T10:11:42.563Z,0.88
2022-08-03T10:14:20.120Z,0.63
2022-08-03T10:16:48.952Z,0.90
2022-08-03T10:19:17.378Z,0.60
2022-08-03T10:21:54.272Z,0.80
2022-08-03T10:24:30.687Z,0.70
2022-08-03T10:27:04.761Z,0.80
2022-08-03T10:29:38.979Z,0.70
2022-08-03T10:32:34.614Z,0.60
2022-08-03T10:35:19.550Z,0.60
2022-08-03T10:38:01.110Z,0.70
2022-08-03T10:40:49.343Z,0.65
2022-08-03T10:43:46.488Z,0.60
2022-08-03T10:46:16.621Z,0.80
2022-08-03T10:48:44.311Z,0.70
2022-08-03T10:51:11.974Z,0.60
2022-08-03T10:53:50.158Z,0.63
2022-08-03T10:56:54.644Z,0.80
2022-08-03T10:59:47.281Z,0.65
2022-08-03T11:02:18.207Z,0.50
2022-08-03T11:04:45.542Z,0.60
2022-08-03T11:07:23.731Z,0.60
2022-08-03T11:09:56.719Z,0.70
2022-08-03T11:12:31.312Z,0.73
2022-08-03T11:15:08.845Z,0.70
2022-08-03T11:17:46.175Z,0.63
2022-08-03T11:20:51.127Z,0.65
2022-08-03T11:24:03.572Z,0.60
2022-08-03T11:26:29.883Z,0.60
2022-08-03T11:29:30.738Z,0.65
2022-08-03T11:31:58.340Z,0.70
2022-08-03T11:34:26.240Z,0.57
2022-08-03T11:37:23.013Z,1.63
2022-08-03T11:39:53.499Z,0.70
2022-08-03T11:42:27.520Z,0.63
2022-08-03T11:44:58.460Z,0.60
2022-08-03T11:47:27.983Z,0.52
2022-08-03T11:50:02.155Z,0.50
2022-08-03T11:52:37.903Z,0.80
2022-08-03T11:55:11.294Z,0.68
2022-08-03T11:59:10.651Z,0.65
2022-08-03T12:00:30.987Z,0.60
2022-08-03T12:03:14.482Z,0.57
2022-08-03T12:05:51.113Z,0.55
2022-08-03T12:08:32.704Z,0.50
2022-08-03T12:11:06.702Z,0.50
2022-08-03T12:14:47.975Z,0.60
2022-08-03T12:16:48.865Z,0.50
2022-08-03T12:19:16.546Z,0.70
2022-08-03T12:21:57.240Z,0.50
2022-08-03T12:24:28.478Z,0.50
2022-08-03T12:26:59.343Z,0.65
2022-08-03T12:29:27.615Z,0.55
2022-08-03T12:31:55.952Z,0.50
2022-08-03T12:34:23.588Z,0.60
2022-08-03T12:36:59.544Z,0.70
2022-08-03T12:39:30.798Z,0.60
2022-08-03T12:44:34.820Z,0.52
2022-08-03T12:47:04.349Z,0.55
2022-08-03T12:49:46.900Z,0.60
2022-08-03T12:52:14.290Z,0.60
2022-08-03T12:54:41.711Z,0.68
2022-08-03T12:57:15.597Z,0.50
2022-08-03T12:59:53.436Z,0.70
2022-08-03T13:02:27.745Z,0.50
2022-08-03T13:04:55.767Z,0.75
2022-08-03T13:07:23.678Z,0.50
2022-08-03T13:09:54.200Z,0.47
2022-08-03T13:12:27.889Z,0.80
2022-08-03T13:15:01.014Z,0.55
2022-08-03T13:17:28.496Z,0.57
2022-08-03T13:19:56.465Z,0.52
2022-08-03T13:22:27.428Z,0.50
2022-08-03T13:24:57.711Z,0.60
2022-08-03T13:28:09.919Z,0.60
2022-08-03T13:30:17.906Z,0.50
2022-08-03T13:32:58.871Z,0.70
2022-08-03T13:35:26.543Z,0.68
2022-08-03T13:37:53.730Z,0.47
2022-08-03T13:40:23.839Z,0.43
2022-08-03T13:42:57.283Z,0.55
2022-08-03T13:45:24.866Z,0.60
2022-08-03T13:47:52.282Z,0.50
2022-08-03T13:50:19.602Z,0.60
2022-08-03T13:52:47.515Z,0.60
2022-08-03T13:55:14.970Z,0.55
2022-08-03T13:58:03.455Z,0.60
2022-08-03T14:00:29.812Z,0.55
2022-08-03T14:03:13.890Z,0.60
2022-08-03T14:05:45.504Z,0.60
2022-08-03T14:08:13.194Z,0.57
2022-08-03T14:10:44.487Z,0.70
2022-08-03T14:13:16.627Z,0.40
2022-08-03T14:15:49.886Z,0.50
2022-08-03T14:18:28.432Z,0.52
2022-08-03T14:21:02.026Z,0.50
2022-08-03T14:23:33.579Z,0.50
2022-08-03T14:26:00.964Z,0.60
2022-08-03T14:28:28.768Z,0.50
2022-08-03T14:30:56.475Z,0.60
2022-08-03T14:33:24.215Z,0.57
2022-08-03T14:35:52.680Z,0.60
2022-08-03T14:38:20.367Z,0.47
2022-08-03T14:40:48.535Z,0.70
2022-08-03T14:43:18.125Z,0.50
2022-08-03T14:45:45.565Z,0.50
2022-08-03T14:50:34.939Z,0.50
2022-08-03T14:51:00.234Z,0.60
2022-08-03T14:53:28.811Z,0.50
2022-08-03T14:55:56.011Z,0.35
2022-08-03T14:58:27.838Z,0.50
2022-08-03T15:00:56.635Z,0.47
2022-08-03T15:03:25.193Z,0.45
2022-08-03T15:05:57.114Z,0.40
2022-08-03T15:08:26.245Z,0.40
2022-08-03T15:10:55.111Z,0.60
2022-08-03T15:13:22.809Z,0.50
2022-08-03T15:15:51.787Z,0.50
2022-08-03T15:18:20.262Z,0.50
2022-08-03T15:20:49.639Z,0.45
2022-08-03T15:23:17.926Z,0.60
2022-08-03T15:26:30.292Z,0.52
2022-08-03T15:28:33.991Z,0.30
2022-08-03T15:31:01.896Z,0.40
2022-08-03T15:33:29.768Z,0.30
2022-08-03T15:35:57.128Z,0.30
2022-08-03T15:38:25.719Z,0.60
2022-08-03T15:40:59.076Z,0.30
2022-08-03T15:43:26.364Z,0.40
2022-08-03T15:48:41.564Z,0.30
2022-08-03T15:51:10.783Z,0.40
2022-08-03T15:53:38.505Z,0.30
2022-08-03T15:56:11.429Z,0.40
2022-08-03T15:59:03.550Z,0.40
2022-08-03T16:01:29.435Z,0.30
2022-08-03T16:03:56.619Z,0.50
2022-08-03T16:06:34.900Z,0.50
2022-08-03T16:09:23.558Z,0.55
2022-08-03T16:11:54.023Z,0.30
2022-08-03T16:14:32.038Z,1.30
2022-08-03T16:17:03.774Z,0.68
2022-08-03T16:19:30.982Z,0.40
2022-08-03T16:21:58.261Z,0.45
2022-08-03T16:24:27.951Z,0.55
2022-08-03T16:26:56.209Z,1.10
2022-08-03T16:29:24.045Z,3.35
2022-08-03T16:31:52.881Z,1.35
2022-08-03T16:34:21.289Z,0.60
2022-08-03T16:36:48.672Z,0.80
2022-08-03T16:39:15.840Z,0.50
2022-08-03T16:41:53.957Z,0.60
2022-08-03T16:44:30.862Z,0.50
2022-08-03T16:46:59.580Z,0.45
2022-08-03T16:49:56.101Z,0.35
2022-08-03T16:52:16.869Z,0.32
2022-08-03T16:54:53.144Z,0.50
2022-08-03T16:57:56.765Z,0.30
2022-08-03T17:00:12.192Z,0.40
2022-08-03T17:03:01.314Z,0.35
2022-08-03T17:05:32.705Z,0.22
2022-08-03T17:08:13.967Z,0.40
2022-08-03T17:10:45.674Z,0.30
2022-08-03T17:13:21.912Z,0.40
2022-08-03T17:15:58.059Z,0.38
2022-08-03T17:18:36.052Z,0.30
2022-08-03T17:21:07.956Z,0.40
2022-08-03T17:23:53.537Z,0.40
2022-08-03T17:26:24.060Z,0.32
2022-08-03T17:29:12.674Z,0.30
2022-08-03T17:31:48.495Z,0.40
2022-08-03T17:34:19.113Z,0.30
2022-08-03T17:37:04.750Z,0.40
2022-08-03T17:39:58.588Z,0.35
2022-08-03T17:42:38.928Z,0.30
2022-08-03T17:45:07.560Z,0.40
2022-08-03T17:47:41.786Z,0.40
2022-08-03T17:50:24.066Z,0.35
2022-08-03T17:53:07.470Z,0.40
2022-08-03T17:55:55.831Z,0.30
2022-08-03T17:58:52.865Z,0.50
2022-08-03T18:02:00.061Z,0.50
2022-08-03T18:04:41.654Z,0.40
2022-08-03T18:07:12.688Z,0.40
2022-08-03T18:13:01.303Z,0.40
2022-08-03T18:15:39.981Z,0.40
2022-08-03T18:18:10.695Z,0.38
2022-08-03T18:20:42.156Z,0.50
2022-08-03T18:23:24.833Z,0.40
2022-08-03T18:25:58.039Z,0.50
2022-08-03T18:28:30.081Z,0.50
2022-08-03T18:30:58.497Z,0.63
2022-08-03T18:34:19.338Z,0.40
2022-08-03T18:36:22.076Z,0.50
2022-08-03T18:38:59.239Z,0.40
2022-08-03T18:41:32.735Z,0.45
2022-08-03T18:44:08.996Z,0.52
2022-08-03T18:47:26.240Z,0.43
2022-08-03T18:50:13.718Z,0.60
2022-08-03T18:53:03.048Z,0.60
2022-08-03T18:56:01.497Z,0.43
2022-08-03T18:58:53.531Z,0.38
2022-08-03T19:02:00.662Z,0.40
2022-08-03T19:04:53.391Z,0.40
2022-08-03T19:07:27.586Z,0.43
2022-08-03T19:10:10.502Z,0.32
2022-08-03T19:12:52.479Z,0.50
2022-08-03T19:15:37.054Z,0.55
2022-08-03T19:18:12.057Z,0.70
2022-08-03T19:20:46.824Z,0.70
2022-08-03T19:23:15.074Z,0.47
2022-08-03T19:25:43.186Z,0.50
2022-08-03T19:28:10.492Z,0.60
2022-08-03T19:30:40.519Z,0.80
2022-08-03T19:33:14.392Z,0.50
2022-08-03T19:35:55.182Z,0.60
2022-08-03T19:38:28.399Z,0.43
2022-08-03T19:41:04.461Z,0.60
2022-08-03T19:43:53.357Z,0.60
2022-08-03T19:46:30.524Z,0.60
2022-08-03T19:49:10.590Z,0.43
2022-08-03T19:51:58.536Z,0.47
2022-08-03T19:54:54.133Z,0.80
2022-08-03T19:57:24.891Z,0.70
2022-08-03T19:59:54.893Z,0.60
2022-08-03T20:02:26.313Z,0.50
2022-08-03T20:04:59.847Z,0.55
2022-08-03T20:07:31.981Z,0.45
2022-08-03T20:10:05.429Z,0.70
2022-08-03T20:12:39.254Z,0.70
2022-08-03T20:15:07.886Z,0.70
2022-08-03T20:17:54.384Z,0.80
2022-08-03T20:20:37.176Z,0.93
2022-08-03T20:23:24.922Z,0.90
2022-08-03T20:25:59.172Z,1.15
2022-08-03T20:28:50.196Z,0.60
2022-08-03T20:31:23.832Z,0.70
2022-08-03T20:34:00.432Z,0.77
2022-08-03T20:36:27.902Z,0.80
2022-08-03T20:38:58.027Z,0.90
2022-08-03T20:41:25.945Z,0.82
2022-08-03T20:43:53.300Z,0.82
2022-08-03T20:49:09.194Z,0.82
2022-08-03T20:51:50.225Z,0.70
2022-08-03T20:54:31.018Z,1.33
2022-08-03T20:57:03.618Z,2.50
2022-08-03T20:59:50.078Z,1.90
2022-08-03T21:02:29.959Z,1.20
2022-08-03T21:05:03.832Z,1.00
2022-08-03T21:08:05.175Z,1.30
2022-08-03T21:10:35.840Z,1.17
2022-08-03T21:13:13.735Z,1.08
2022-08-03T21:13:18.895Z,1.10
2022-08-03T21:16:06.065Z,1.02
2022-08-03T21:18:51.979Z,1.10
2022-08-03T21:21:23.101Z,1.15
2022-08-03T21:23:55.006Z,1.10
2022-08-03T21:28:56.328Z,1.20
2022-08-03T21:31:26.503Z,0.93
2022-08-03T21:34:04.788Z,0.93
2022-08-03T21:36:35.804Z,1.27
2022-08-03T21:39:08.517Z,0.98
2022-08-03T21:41:39.078Z,0.80
2022-08-03T21:44:07.174Z,1.17
2022-08-03T21:46:38.245Z,1.17
2022-08-03T21:50:06.895Z,1.30
2022-08-03T21:51:59.793Z,1.40
2022-08-03T21:54:38.916Z,1.40
2022-08-03T21:57:14.553Z,1.30
2022-08-03T21:59:54.907Z,1.10
2022-08-03T22:02:30.108Z,0.93
2022-08-03T22:04:59.462Z,0.80
2022-08-03T22:07:29.247Z,0.95
2022-08-03T22:09:58.375Z,1.08
2022-08-03T22:12:29.542Z,0.75
2022-08-03T22:15:00.763Z,1.30
2022-08-03T22:20:19.383Z,1.35
2022-08-03T22:22:55.722Z,1.13
2022-08-03T22:25:29.298Z,1.30
2022-08-03T22:28:00.478Z,1.35
2022-08-03T22:30:28.306Z,1.50
2022-08-03T22:32:56.418Z,1.27
2022-08-03T22:35:27.027Z,1.30
2022-08-03T22:37:57.885Z,1.30
2022-08-03T22:40:25.514Z,1.00
2022-08-03T22:42:52.798Z,1.33
2022-08-03T22:46:06.171Z,1.02
2022-08-03T22:48:08.741Z,0.93
2022-08-03T22:50:36.269Z,0.98
2022-08-03T22:53:03.738Z,0.90
2022-08-03T22:55:31.379Z,1.20
2022-08-03T22:57:58.629Z,1.10
2022-08-03T23:00:26.241Z,1.30
2022-08-03T23:02:56.448Z,1.10
2022-08-03T23:06:00.873Z,1.20
2022-08-03T23:08:24.812Z,1.10
2022-08-03T23:10:54.230Z,1.10
2022-08-03T23:13:28.176Z,0.80
2022-08-03T23:16:00.183Z,1.00
2022-08-03T23:21:11.248Z,0.90
2022-08-03T23:23:44.696Z,1.00
2022-08-03T23:26:15.996Z,1.10
2022-08-03T23:28:47.272Z,1.00
2022-08-03T23:31:18.972Z,1.00
2022-08-03T23:33:46.772Z,1.00
2022-08-03T23:36:30.431Z,1.00
2022-08-03T23:39:02.464Z,1.05
2022-08-03T23:41:31.228Z,1.13
2022-08-03T23:44:01.501Z,0.90
2022-08-03T23:46:30.587Z,1.10
2022-08-03T23:48:59.955Z,1.00
2022-08-03T23:51:54.974Z,0.70
2022-08-03T23:54:27.757Z,0.95
2022-08-03T23:57:17.851Z,0.80
